Usk, Canada
Current Conditions -  °F | °C
As of 1:00 AM on Sunday 26 Oct 2014 (Local Time) from CYXT Reporting Station
Broken Clouds Broken Clouds  
Wind Chill: 35°   Ceiling: 8000
Heat Index: 41°   Visibility: 15mi
Dew Point: 36°   Wind: 10mph
Humidity: 81%   Direction: 10°N
Pressure: 29.64"   Gusts: NA
Location:  54.64°N, 128.41°W
Report Text: CYXT 260800Z 01009KT 15SM BKN080 05/02 A2964 RMK AC6 SLP043
Loading
Personal Weather Stations






























Interactive Weather Map
Tropical Storm Tracking
New forecast layout! Learn more

10-Day Weather Forecast

Advertisements
Track Severe Weather on mobile